Time;durP1;ratioP1;P1;durP2;ratioP2;P2;SDS_P1;SDS_P2;PMS_P1;PMS_P2;Temp;Humidity;BMP_temperature;BMP_pressure;BME280_temperature;BME280_humidity;BME280_pressure;Samples;Min_cycle;Max_cycle;Signal;HPM_P1;HPM_P2
2022/12/09 00:01:13;;;;;;;11.82;7.63;;;;;;;-2.00;100.00;100147.94;5068718;28;20035;-80
2022/12/09 00:03:39;;;;;;;12.38;7.43;;;;;;;-2.10;100.00;100149.28;5103694;28;20039;-80
2022/12/09 00:06:11;;;;;;;16.15;10.02;;;;;;;-2.10;100.00;100142.34;5093505;28;20684;-80
2022/12/09 00:08:37;;;;;;;16.35;10.40;;;;;;;-2.08;100.00;100144.84;5091398;28;20028;-81
2022/12/09 00:11:13;;;;;;;20.65;9.93;;;;;;;-2.03;100.00;100140.31;5107205;28;20032;-81
2022/12/09 00:13:43;;;;;;;21.52;12.65;;;;;;;-2.01;100.00;100151.47;5097193;28;20041;-81
2022/12/09 00:16:13;;;;;;;20.85;13.93;;;;;;;-1.95;100.00;100151.16;5071501;28;20031;-81
2022/12/09 00:18:40;;;;;;;25.55;14.52;;;;;;;-1.94;100.00;100145.06;5086658;28;20090;-81
2022/12/09 00:21:32;;;;;;;25.23;12.35;;;;;;;-1.97;100.00;100149.53;5081593;28;20024;-81
2022/12/09 00:24:03;;;;;;;16.05;9.25;;;;;;;-2.07;100.00;100144.78;5091593;28;20744;-81
2022/12/09 00:26:30;;;;;;;19.02;8.77;;;;;;;-2.09;100.00;100150.97;5100632;28;20027;-81
2022/12/09 00:29:00;;;;;;;18.55;8.60;;;;;;;-2.12;100.00;100151.94;5084390;28;20032;-82
2022/12/09 00:31:31;;;;;;;17.58;9.52;;;;;;;-2.12;100.00;100151.94;5074987;28;20027;-81
2022/12/09 00:33:59;;;;;;;15.20;8.10;;;;;;;-2.10;100.00;100150.09;5066415;28;20051;-81
2022/12/09 00:36:26;;;;;;;13.68;7.35;;;;;;;-2.15;100.00;100150.31;5070386;28;20036;-81
2022/12/09 00:38:54;;;;;;;14.75;7.35;;;;;;;-2.20;100.00;100144.53;5078454;28;20043;-81
2022/12/09 00:41:20;;;;;;;14.52;8.20;;;;;;;-2.31;100.00;100147.56;5084223;28;20038;-80
2022/12/09 00:43:46;;;;;;;20.77;8.90;;;;;;;-2.36;100.00;100154.72;5067812;28;20080;-81
2022/12/09 00:46:13;;;;;;;14.07;8.23;;;;;;;-2.42;100.00;100153.22;5078746;28;20028;-81
2022/12/09 00:48:40;;;;;;;12.85;7.28;;;;;;;-2.44;100.00;100160.25;5084609;28;20089;-81
2022/12/09 00:51:09;;;;;;;12.45;7.15;;;;;;;-2.43;100.00;100166.25;5079150;28;20480;-81
2022/12/09 00:53:35;;;;;;;14.00;7.43;;;;;;;-2.44;100.00;100157.66;5081249;28;20071;-82
2022/12/09 00:56:01;;;;;;;12.55;7.80;;;;;;;-2.47;100.00;100156.94;5066814;28;20394;-81
2022/12/09 00:58:28;;;;;;;14.32;8.32;;;;;;;-2.50;100.00;100150.16;5080681;28;20043;-81
2022/12/09 01:00:54;;;;;;;15.43;7.85;;;;;;;-2.56;100.00;100147.81;5107615;28;20074;-81
2022/12/09 01:03:21;;;;;;;14.23;8.25;;;;;;;-2.56;100.00;100147.81;5075012;28;20495;-81
2022/12/09 01:05:47;;;;;;;16.25;8.68;;;;;;;-2.58;100.00;100142.72;5098469;28;20416;-81
2022/12/09 01:08:13;;;;;;;17.92;9.32;;;;;;;-2.54;100.00;100138.25;5084744;28;20077;-81
2022/12/09 01:10:40;;;;;;;15.15;8.07;;;;;;;-2.53;100.00;100143.38;5108329;28;20067;-82
2022/12/09 01:13:07;;;;;;;13.35;7.80;;;;;;;-2.58;100.00;100144.47;5071854;28;20088;-82
2022/12/09 01:15:33;;;;;;;19.33;8.10;;;;;;;-2.57;100.00;100141.81;5075566;28;20035;-81
2022/12/09 01:17:59;;;;;;;18.95;8.55;;;;;;;-2.55;100.00;100134.00;5079272;28;20042;-82
2022/12/09 01:20:25;;;;;;;16.40;9.23;;;;;;;-2.56;100.00;100140.06;5090810;28;20544;-81
2022/12/09 01:22:53;;;;;;;18.13;8.55;;;;;;;-2.59;100.00;100133.28;5103414;28;20036;-81
2022/12/09 01:25:20;;;;;;;14.50;8.50;;;;;;;-2.61;100.00;100135.09;5088025;28;20056;-81
2022/12/09 01:27:46;;;;;;;13.63;8.50;;;;;;;-2.61;100.00;100129.91;5093291;28;20035;-81
2022/12/09 01:30:15;;;;;;;18.77;8.60;;;;;;;-2.60;100.00;100129.03;5091670;28;20464;-81
2022/12/09 01:32:42;;;;;;;15.63;8.95;;;;;;;-2.60;100.00;100129.03;5090893;28;20067;-81
2022/12/09 01:35:08;;;;;;;13.77;8.25;;;;;;;-2.58;100.00;100123.78;5093399;28;20066;-81
2022/12/09 01:37:35;;;;;;;15.75;8.40;;;;;;;-2.57;100.00;100125.44;5066661;28;20040;-81
2022/12/09 01:40:05;;;;;;;20.42;9.25;;;;;;;-2.58;100.00;100127.19;5073416;28;20615;-81
2022/12/09 01:42:33;;;;;;;14.05;8.57;;;;;;;-2.57;100.00;100123.72;5102343;28;20040;-81
2022/12/09 01:45:20;;;;;;;14.77;8.35;;;;;;;-2.51;100.00;100125.19;5074181;28;20472;-81
2022/12/09 01:47:55;;;;;;;18.33;8.88;;;;;;;-2.47;100.00;100121.56;5072828;28;20130;-80
2022/12/09 01:50:22;;;;;;;19.38;8.85;;;;;;;-2.46;100.00;100124.97;5093972;28;20028;-81
2022/12/09 01:52:49;;;;;;;15.95;9.40;;;;;;;-2.45;100.00;100126.66;5052744;28;20096;-81
2022/12/09 01:55:15;;;;;;;16.08;9.30;;;;;;;-2.45;100.00;100134.44;5092253;28;20030;-81
2022/12/09 01:57:43;;;;;;;18.17;9.15;;;;;;;-2.39;100.00;100136.75;5106504;28;20035;-81
2022/12/09 02:00:10;;;;;;;18.02;9.32;;;;;;;-2.45;100.00;100131.84;5107207;28;20042;-81
2022/12/09 02:02:45;;;;;;;16.73;8.63;;;;;;;-2.48;100.00;100134.56;5096898;28;20093;-82
2022/12/09 02:05:11;;;;;;;16.55;8.88;;;;;;;-2.53;100.00;100132.16;5080764;28;20043;-81
2022/12/09 02:07:40;;;;;;;15.68;8.07;;;;;;;-2.53;100.00;100142.50;5081381;28;20039;-81
2022/12/09 02:10:13;;;;;;;15.95;9.63;;;;;;;-2.53;100.00;100138.19;5104417;28;20057;-81
2022/12/09 02:12:50;;;;;;;16.88;8.55;;;;;;;-2.55;100.00;100129.63;5089311;28;20114;-81
2022/12/09 02:15:29;;;;;;;15.73;8.68;;;;;;;-2.54;100.00;100128.75;5104813;28;20071;-81
2022/12/09 02:17:58;;;;;;;15.10;8.77;;;;;;;-2.65;100.00;100124.06;5107207;28;20053;-81
2022/12/09 02:20:28;;;;;;;15.05;8.63;;;;;;;-2.66;100.00;100117.19;5073250;28;20036;-81
2022/12/09 02:23:25;;;;;;;13.93;7.53;;;;;;;-2.72;100.00;100119.22;5079161;28;20047;-81
2022/12/09 02:26:04;;;;;;;13.88;8.00;;;;;;;-2.84;100.00;100118.84;5104544;28;20044;-81
2022/12/09 02:28:36;;;;;;;14.07;7.00;;;;;;;-2.85;100.00;100119.72;5108717;28;20034;-80
2022/12/09 02:31:21;;;;;;;15.38;8.18;;;;;;;-2.83;100.00;100120.50;5070392;28;20090;-81
2022/12/09 02:34:10;;;;;;;18.05;9.32;;;;;;;-2.85;100.00;100129.25;5099419;28;20084;-81
2022/12/09 02:37:04;;;;;;;13.40;8.23;;;;;;;-2.89;100.00;100125.94;5094514;28;20557;-81
2022/12/09 02:40:01;;;;;;;14.82;8.77;;;;;;;-2.89;100.00;100125.94;5088658;28;20062;-81
2022/12/09 02:42:33;;;;;;;22.08;8.18;;;;;;;-3.00;100.00;100131.56;5069484;28;20055;-81
2022/12/09 02:45:07;;;;;;;16.95;9.77;;;;;;;-3.06;100.00;100129.25;5091824;28;20078;-81
2022/12/09 02:47:41;;;;;;;19.05;9.00;;;;;;;-3.08;100.00;100125.88;5095174;28;20043;-81
2022/12/09 02:50:12;;;;;;;17.02;8.25;;;;;;;-3.10;100.00;100123.34;5092838;28;20129;-81
2022/12/09 02:52:39;;;;;;;17.88;9.05;;;;;;;-3.13;100.00;100132.09;5096312;28;20043;-81
2022/12/09 02:55:08;;;;;;;17.90;8.70;;;;;;;-3.13;100.00;100120.91;5079104;28;20043;-81
2022/12/09 02:57:37;;;;;;;16.05;8.45;;;;;;;-3.16;100.00;100116.69;5089605;28;20040;-81
2022/12/09 03:00:06;;;;;;;17.73;9.75;;;;;;;-3.14;100.00;100117.47;5075398;28;20071;-81
2022/12/09 03:02:38;;;;;;;16.20;8.00;;;;;;;-3.11;100.00;100114.75;5088574;28;20028;-81
2022/12/09 03:05:25;;;;;;;15.48;8.65;;;;;;;-3.13;100.00;100116.56;5105802;28;20510;-81
2022/12/09 03:08:13;;;;;;;13.82;7.68;;;;;;;-3.14;100.00;100116.63;5098774;28;20036;-81
2022/12/09 03:10:42;;;;;;;15.82;8.75;;;;;;;-3.16;100.00;100110.69;5101214;28;20123;-81
2022/12/09 03:13:32;;;;;;;18.50;7.68;;;;;;;-3.20;100.00;100109.16;5101284;28;20031;-80
2022/12/09 03:16:12;;;;;;;15.95;8.38;;;;;;;-3.27;100.00;100108.56;5108327;28;20044;-81
2022/12/09 03:18:42;;;;;;;13.00;7.75;;;;;;;-3.30;100.00;100106.94;5111774;28;20047;-81
2022/12/09 03:21:10;;;;;;;14.77;7.35;;;;;;;-3.30;100.00;100109.53;5105420;28;20035;-81
2022/12/09 03:23:37;;;;;;;15.95;9.25;;;;;;;-3.31;100.00;100107.81;5090840;28;20113;-81
2022/12/09 03:26:05;;;;;;;19.20;8.73;;;;;;;-3.25;100.00;100111.91;5090697;28;20039;-81
2022/12/09 03:28:39;;;;;;;13.18;7.55;;;;;;;-3.20;100.00;100122.06;5081267;28;20035;-81
2022/12/09 03:31:13;;;;;;;15.93;8.57;;;;;;;-3.21;100.00;100116.03;5075589;28;20143;-80
2022/12/09 03:33:43;;;;;;;16.42;8.30;;;;;;;-3.15;100.00;100112.34;5099159;28;20043;-81
2022/12/09 03:36:11;;;;;;;13.23;8.52;;;;;;;-3.11;100.00;100112.16;5103805;28;20108;-81
2022/12/09 03:38:40;;;;;;;14.48;7.47;;;;;;;-3.07;100.00;100112.06;5088863;28;20136;-81
2022/12/09 03:41:17;;;;;;;12.23;7.80;;;;;;;-3.02;100.00;100104.94;5074725;28;20392;-81
2022/12/09 03:43:51;;;;;;;14.35;8.25;;;;;;;-3.02;100.00;100107.50;5103576;28;20035;-81
2022/12/09 03:46:19;;;;;;;19.42;7.25;;;;;;;-3.07;100.00;100112.06;5092888;28;20043;-81
2022/12/09 03:48:47;;;;;;;18.50;8.43;;;;;;;-3.09;100.00;100111.28;5092126;28;20035;-81
2022/12/09 03:51:23;;;;;;;14.23;7.43;;;;;;;-3.07;100.00;100112.88;5080365;28;20127;-81
2022/12/09 03:54:00;;;;;;;12.07;7.47;;;;;;;-3.12;100.00;100107.06;5072369;28;20028;-81
2022/12/09 03:56:38;;;;;;;12.60;6.90;;;;;;;-3.19;100.00;100103.06;5077191;28;20043;-81
2022/12/09 03:59:09;;;;;;;11.38;6.95;;;;;;;-3.19;100.00;100100.47;5075548;28;20112;-81
2022/12/09 04:01:35;;;;;;;14.80;7.00;;;;;;;-3.20;100.00;100097.03;5092278;28;20030;-81
2022/12/09 04:04:01;;;;;;;12.27;7.35;;;;;;;-3.21;100.00;100095.38;5103186;28;20031;-81
2022/12/09 04:06:27;;;;;;;11.63;6.93;;;;;;;-3.22;100.00;100096.28;5073286;28;20044;-81
2022/12/09 04:08:59;;;;;;;13.13;7.05;;;;;;;-3.23;100.00;100092.00;5107835;28;20035;-81
2022/12/09 04:11:26;;;;;;;13.48;7.70;;;;;;;-3.22;100.00;100087.69;5103019;28;20484;-80
2022/12/09 04:13:52;;;;;;;13.73;7.60;;;;;;;-3.23;100.00;100089.41;5107272;28;20116;-81
2022/12/09 04:16:18;;;;;;;18.95;8.27;;;;;;;-3.22;100.00;100085.94;5104796;28;20043;-80
2022/12/09 04:18:44;;;;;;;15.80;7.90;;;;;;;-3.20;100.00;100088.47;5093465;28;20031;-81
2022/12/09 04:21:12;;;;;;;13.93;7.57;;;;;;;-3.21;100.00;100081.59;5105242;28;20085;-80
2022/12/09 04:23:40;;;;;;;15.35;8.77;;;;;;;-3.18;100.00;100090.06;5106992;28;20110;-81
2022/12/09 04:26:19;;;;;;;19.73;9.02;;;;;;;-3.18;100.00;100087.47;5089010;28;20377;-81
2022/12/09 04:28:45;;;;;;;13.98;9.00;;;;;;;-3.20;100.00;100085.88;5100359;28;20035;-80
2022/12/09 04:31:14;;;;;;;14.68;8.48;;;;;;;-3.29;100.00;100089.66;5092700;28;20184;-81
2022/12/09 04:33:40;;;;;;;13.18;8.43;;;;;;;-3.41;100.00;100107.34;5088006;28;20044;-80
2022/12/09 04:36:09;;;;;;;19.58;8.27;;;;;;;-3.55;100.00;100096.78;5107197;28;20126;-80
2022/12/09 04:38:35;;;;;;;14.32;8.48;;;;;;;-3.65;100.00;100091.13;5105776;28;20169;-81
2022/12/09 04:41:02;;;;;;;13.75;8.32;;;;;;;-3.72;100.00;100087.94;5092028;28;20107;-81
2022/12/09 04:43:28;;;;;;;16.33;8.35;;;;;;;-3.70;100.00;100083.56;5095519;28;20042;-81
2022/12/09 04:45:59;;;;;;;13.63;8.32;;;;;;;-3.66;100.00;100089.41;5074691;28;20055;-80
2022/12/09 04:48:26;;;;;;;12.65;8.32;;;;;;;-3.73;100.00;100088.84;5097268;28;20019;-81
2022/12/09 04:50:52;;;;;;;14.25;8.30;;;;;;;-3.74;100.00;100092.31;5093907;28;20381;-81
2022/12/09 04:53:17;;;;;;;14.48;8.00;;;;;;;-3.74;100.00;100088.00;5087413;28;20038;-80
2022/12/09 04:55:43;;;;;;;13.80;8.40;;;;;;;-3.75;100.00;100078.59;5095004;28;20471;-80
2022/12/09 04:58:12;;;;;;;14.15;8.82;;;;;;;-3.74;100.00;100081.97;5089870;28;20048;-80
2022/12/09 05:00:38;;;;;;;12.27;7.70;;;;;;;-3.73;100.00;100075.94;5084068;28;20027;-80
2022/12/09 05:03:04;;;;;;;16.20;8.00;;;;;;;-3.69;100.00;100081.81;5107743;28;20476;-81
2022/12/09 05:05:31;;;;;;;10.75;6.82;;;;;;;-3.67;100.00;100072.25;5107664;28;20036;-80
2022/12/09 05:07:57;;;;;;;13.02;8.55;;;;;;;-3.67;100.00;100082.59;5105903;28;20472;-80
2022/12/09 05:10:23;;;;;;;17.33;10.13;;;;;;;-3.70;100.00;100078.41;5107611;28;20031;-80
2022/12/09 05:12:49;;;;;;;17.23;9.13;;;;;;;-3.71;100.00;100087.03;5086058;28;20034;-80
2022/12/09 05:15:16;;;;;;;13.35;9.07;;;;;;;-3.73;100.00;100088.84;5092399;28;20030;-80
2022/12/09 05:17:42;;;;;;;13.05;9.20;;;;;;;-3.72;100.00;100089.66;5090040;28;20032;-80
2022/12/09 05:20:09;;;;;;;13.05;7.43;;;;;;;-3.78;100.00;100086.44;5063181;28;20043;-80
2022/12/09 05:22:44;;;;;;;10.52;6.85;;;;;;;-3.89;100.00;100078.28;5074338;28;20039;-80
2022/12/09 05:25:10;;;;;;;11.15;6.93;;;;;;;-3.99;100.00;100078.66;5108529;28;20085;-80
2022/12/09 05:27:35;;;;;;;13.13;7.50;;;;;;;-4.05;100.00;100085.78;5092862;28;20539;-80
2022/12/09 05:30:02;;;;;;;14.10;8.48;;;;;;;-4.15;100.00;100086.13;5073343;28;20039;-80
2022/12/09 05:32:29;;;;;;;14.00;7.72;;;;;;;-4.17;100.00;100089.69;5102018;28;20039;-80
2022/12/09 05:34:56;;;;;;;12.32;7.45;;;;;;;-4.16;100.00;100094.78;5079236;28;20035;-80
2022/12/09 05:37:21;;;;;;;13.43;7.93;;;;;;;-4.11;100.00;100095.44;5109702;28;20077;-80
2022/12/09 05:39:47;;;;;;;25.60;8.38;;;;;;;-4.08;100.00;100093.66;5108572;28;20537;-80
2022/12/09 05:42:14;;;;;;;47.72;9.40;;;;;;;-4.07;100.00;100091.00;5093083;28;20059;-80
2022/12/09 05:44:49;;;;;;;37.65;9.05;;;;;;;-4.09;100.00;100089.41;5077583;28;20367;-82
2022/12/09 05:47:18;;;;;;;75.95;10.95;;;;;;;-4.11;100.00;100094.63;5108288;28;20415;-80
2022/12/09 05:49:44;;;;;;;26.25;9.35;;;;;;;-4.08;100.00;100097.06;5089890;28;20038;-81
2022/12/09 05:52:12;;;;;;;63.65;10.38;;;;;;;-4.06;100.00;100097.84;5107747;28;20035;-80
2022/12/09 05:54:39;;;;;;;40.58;10.18;;;;;;;-4.07;100.00;100098.75;5084818;28;20044;-80
2022/12/09 05:57:08;;;;;;;26.05;9.50;;;;;;;-4.04;100.00;100093.47;5087759;28;20468;-80
2022/12/09 05:59:34;;;;;;;23.20;10.32;;;;;;;-4.03;100.00;100102.06;5088477;28;20051;-80
2022/12/09 06:02:01;;;;;;;51.80;10.50;;;;;;;-4.04;100.00;100100.34;5069591;28;20040;-81
2022/12/09 06:04:26;;;;;;;34.45;10.95;;;;;;;-4.04;100.00;100093.47;5063446;28;20047;-80
2022/12/09 06:06:55;;;;;;;82.60;10.82;;;;;;;-4.03;100.00;100091.75;5089183;28;20044;-80
2022/12/09 06:09:21;;;;;;;31.88;10.82;;;;;;;-4.00;100.00;100083.88;5106037;28;20095;-80
2022/12/09 06:11:47;;;;;;;79.40;11.30;;;;;;;-3.95;100.00;100089.66;5091866;28;20491;-80
2022/12/09 06:14:17;;;;;;;86.18;12.23;;;;;;;-4.01;100.00;100083.03;5094293;28;20027;-80
2022/12/09 06:16:43;;;;;;;110.25;10.57;;;;;;;-4.06;100.00;100081.53;5092064;28;20394;-80
2022/12/09 06:19:11;;;;;;;65.30;9.18;;;;;;;-4.04;100.00;100082.28;5076979;28;20031;-80
2022/12/09 06:21:41;;;;;;;39.42;10.02;;;;;;;-4.08;100.00;100084.16;5088884;28;20061;-80
2022/12/09 06:24:07;;;;;;;73.60;11.35;;;;;;;-4.07;100.00;100083.25;5111924;28;20044;-79
2022/12/09 06:26:34;;;;;;;58.92;9.77;;;;;;;-4.05;100.00;100089.22;5110940;28;20038;-80
2022/12/09 06:29:06;;;;;;;25.23;10.13;;;;;;;-3.97;100.00;100085.47;5105664;28;20715;-80
2022/12/09 06:31:32;;;;;;;24.08;9.55;;;;;;;-3.93;100.00;100087.03;5110533;28;20051;-80
2022/12/09 06:33:58;;;;;;;16.17;9.60;;;;;;;-3.90;100.00;100082.59;5089060;28;20067;-80
2022/12/09 06:36:25;;;;;;;32.30;9.13;;;;;;;-3.84;100.00;100075.53;5071989;28;20023;-80
2022/12/09 06:38:51;;;;;;;18.67;9.35;;;;;;;-3.81;100.00;100071.06;5111595;28;20471;-80
2022/12/09 06:41:17;;;;;;;38.00;10.95;;;;;;;-3.82;100.00;100073.72;5105567;28;20088;-81
2022/12/09 06:43:43;;;;;;;22.75;11.25;;;;;;;-3.88;100.00;100072.22;5108863;28;20039;-80
2022/12/09 06:46:18;;;;;;;54.00;11.27;;;;;;;-3.91;100.00;100077.50;5107975;28;20039;-80
2022/12/09 06:48:45;;;;;;;42.40;10.52;;;;;;;-4.01;100.00;100077.00;5090407;28;20036;-80
2022/12/09 06:51:11;;;;;;;167.68;12.23;;;;;;;-4.10;100.00;100080.81;5092003;28;20035;-81
2022/12/09 06:53:37;;;;;;;42.85;10.23;;;;;;;-4.16;100.00;100087.03;5075599;28;20134;-80
2022/12/09 06:56:05;;;;;;;60.03;12.32;;;;;;;-4.18;100.00;100086.25;5094725;28;20047;-80
2022/12/09 06:58:32;;;;;;;70.63;10.75;;;;;;;-4.23;100.00;100083.00;5092721;28;20472;-80
2022/12/09 07:01:19;;;;;;;52.28;9.52;;;;;;;-4.18;100.00;100082.81;5102842;28;20035;-80
2022/12/09 07:03:48;;;;;;;24.17;9.65;;;;;;;-4.14;100.00;100082.66;5065943;28;20051;-80
2022/12/09 07:06:35;;;;;;;38.83;9.55;;;;;;;-4.09;100.00;100086.81;5108284;28;20051;-80
2022/12/09 07:09:05;;;;;;;23.27;8.88;;;;;;;-4.10;100.00;100088.53;5074407;28;20034;-80
2022/12/09 07:11:31;;;;;;;19.90;10.48;;;;;;;-4.11;100.00;100094.63;5080824;28;20081;-80
2022/12/09 07:13:57;;;;;;;73.15;11.35;;;;;;;-4.17;100.00;100093.09;5076262;28;20047;-80
2022/12/09 07:16:23;;;;;;;58.90;16.13;;;;;;;-4.22;100.00;100087.25;5091155;28;20032;-80
2022/12/09 07:18:49;;;;;;;52.85;19.05;;;;;;;-4.27;100.00;100095.16;5093526;28;20023;-80
2022/12/09 07:21:17;;;;;;;67.03;19.17;;;;;;;-4.25;100.00;100093.38;5074250;28;20365;-81
2022/12/09 07:23:44;;;;;;;32.20;11.65;;;;;;;-4.30;100.00;100100.44;5083798;28;20285;-80
2022/12/09 07:26:10;;;;;;;28.55;11.07;;;;;;;-4.38;100.00;100103.31;5110237;28;20035;-80
2022/12/09 07:28:41;;;;;;;36.67;12.55;;;;;;;-4.35;100.00;100097.22;5071784;28;20572;-80
2022/12/09 07:31:18;;;;;;;71.95;11.90;;;;;;;-4.29;100.00;100102.16;5085694;28;20077;-80
2022/12/09 07:33:44;;;;;;;83.20;10.07;;;;;;;-4.29;100.00;100093.56;5091480;28;20031;-80
2022/12/09 07:36:10;;;;;;;53.75;10.77;;;;;;;-4.25;100.00;100093.38;5107242;28;20085;-80
2022/12/09 07:38:39;;;;;;;151.90;12.07;;;;;;;-4.19;100.00;100091.47;5098168;28;20119;-78
2022/12/09 07:41:16;;;;;;;86.95;10.18;;;;;;;-4.14;100.00;100087.81;5106761;28;20027;-79
2022/12/09 07:43:44;;;;;;;118.85;12.20;;;;;;;-4.10;100.00;100080.81;5103233;28;20059;-79
2022/12/09 07:46:11;;;;;;;38.95;10.77;;;;;;;-4.07;100.00;100069.50;5106420;28;20036;-79
2022/12/09 07:48:40;;;;;;;69.68;11.90;;;;;;;-4.05;100.00;100065.97;5110528;28;20403;-80
2022/12/09 07:51:07;;;;;;;88.72;11.35;;;;;;;-4.03;100.00;100068.50;5106953;28;20533;-80
2022/12/09 07:53:34;;;;;;;22.08;9.05;;;;;;;-4.00;100.00;100069.19;5083700;28;20036;-80
2022/12/09 07:56:03;;;;;;;74.72;9.80;;;;;;;-3.93;100.00;100071.53;5093800;28;20081;-80
2022/12/09 07:58:29;;;;;;;118.25;10.43;;;;;;;-3.94;100.00;100072.44;5089600;28;20046;-80
2022/12/09 08:00:55;;;;;;;34.60;8.27;;;;;;;-3.89;100.00;100070.53;5107778;28;20059;-80
2022/12/09 08:03:25;;;;;;;59.60;8.40;;;;;;;-3.89;100.00;100073.13;5070793;28;20063;-79
2022/12/09 08:05:52;;;;;;;131.27;10.38;;;;;;;-3.87;100.00;100079.91;5104163;28;20023;-79
2022/12/09 08:08:20;;;;;;;116.80;9.18;;;;;;;-3.87;100.00;100077.31;5105159;28;20064;-79
2022/12/09 08:10:46;;;;;;;148.18;9.30;;;;;;;-3.87;100.00;100073.91;5110674;28;20031;-80
2022/12/09 08:13:12;;;;;;;126.47;9.38;;;;;;;-3.86;100.00;100075.56;5092425;28;20376;-80
2022/12/09 08:15:38;;;;;;;118.35;9.02;;;;;;;-3.89;100.00;100073.97;5088490;28;20523;-80
2022/12/09 08:18:04;;;;;;;139.88;10.30;;;;;;;-3.94;100.00;100081.06;5088217;28;20098;-80
2022/12/09 08:20:30;;;;;;;50.33;8.07;;;;;;;-3.94;100.00;100080.19;5100820;28;20038;-80
2022/12/09 08:22:56;;;;;;;50.60;8.70;;;;;;;-3.97;100.00;100082.91;5091983;28;20031;-80
2022/12/09 08:25:23;;;;;;;43.65;8.15;;;;;;;-4.01;100.00;100080.44;5109955;28;20479;-80
2022/12/09 08:27:49;;;;;;;111.63;9.80;;;;;;;-4.02;100.00;100077.91;5092360;28;20097;-80
2022/12/09 08:30:15;;;;;;;100.22;8.38;;;;;;;-4.02;100.00;100080.50;5073856;28;20039;-80
2022/12/09 08:32:44;;;;;;;151.90;10.30;;;;;;;-4.02;100.00;100081.34;5106642;28;20028;-80
2022/12/09 08:35:14;;;;;;;205.52;10.70;;;;;;;-3.98;100.00;100087.22;5096079;28;20027;-80
2022/12/09 08:37:47;;;;;;;167.60;10.63;;;;;;;-3.88;100.00;100108.34;5112022;28;20455;-80
2022/12/09 08:40:19;;;;;;;116.55;9.68;;;;;;;-3.84;100.00;100102.19;5078157;28;20059;-80
2022/12/09 08:42:48;;;;;;;89.20;22.75;;;;;;;-3.83;100.00;100105.59;5075212;28;20040;-80
2022/12/09 08:45:17;;;;;;;96.07;12.52;;;;;;;-3.79;100.00;100097.66;5111826;28;20077;-80
2022/12/09 08:47:46;;;;;;;123.47;21.55;;;;;;;-3.77;100.00;100097.59;5091484;28;20036;-80
2022/12/09 08:50:12;;;;;;;71.63;16.60;;;;;;;-3.81;100.00;100089.16;5110715;28;20100;-80
2022/12/09 08:52:46;;;;;;;86.38;16.75;;;;;;;-3.79;100.00;100089.91;5093013;28;20040;-80
2022/12/09 08:55:28;;;;;;;47.50;14.00;;;;;;;-3.77;100.00;100090.72;5091145;28;20183;-80
2022/12/09 08:58:00;;;;;;;67.10;9.70;;;;;;;-3.79;100.00;100089.91;5078346;28;20051;-80
2022/12/09 09:00:26;;;;;;;73.65;12.02;;;;;;;-3.81;100.00;100093.47;5076114;28;20096;-80
2022/12/09 09:02:53;;;;;;;89.00;14.32;;;;;;;-3.80;100.00;100085.66;5085780;28;20031;-80
2022/12/09 09:05:26;;;;;;;99.85;19.40;;;;;;;-3.70;100.00;100095.63;5074343;28;20062;-80
2022/12/09 09:07:52;;;;;;;79.82;21.63;;;;;;;-3.69;100.00;100097.28;5104387;28;20562;-80
2022/12/09 09:10:24;;;;;;;46.75;15.70;;;;;;;-3.65;100.00;100091.13;5086018;28;20561;-80
2022/12/09 09:12:50;;;;;;;91.10;11.27;;;;;;;-3.67;100.00;100090.34;5085750;28;20101;-80
2022/12/09 09:15:17;;;;;;;83.75;24.23;;;;;;;-3.63;100.00;100092.72;5109320;28;20027;-80
2022/12/09 09:17:43;;;;;;;133.13;54.08;;;;;;;-3.61;100.00;100095.25;5109197;28;20042;-81
2022/12/09 09:20:09;;;;;;;92.63;23.83;;;;;;;-3.57;100.00;100095.97;5066893;28;20027;-80
2022/12/09 09:22:41;;;;;;;168.15;23.90;;;;;;;-3.56;100.00;100097.66;5103910;28;20455;-80
2022/12/09 09:25:16;;;;;;;100.63;44.38;;;;;;;-3.48;100.00;100103.34;5058857;28;20047;-81
2022/12/09 09:27:55;;;;;;;80.43;26.20;;;;;;;-3.44;100.00;100094.56;5089273;28;20027;-81
2022/12/09 09:30:27;;;;;;;100.55;40.75;;;;;;;-3.39;100.00;100094.38;5107748;28;20099;-80
2022/12/09 09:32:58;;;;;;;99.53;41.60;;;;;;;-3.39;100.00;100082.31;5103808;28;20036;-81
2022/12/09 09:35:28;;;;;;;111.28;25.02;;;;;;;-3.28;100.00;100086.19;5099065;28;20371;-80
2022/12/09 09:37:59;;;;;;;40.65;12.88;;;;;;;-3.26;100.00;100082.63;5104319;28;20031;-80
2022/12/09 09:40:40;;;;;;;104.47;24.55;;;;;;;-3.23;100.00;100071.31;5107938;28;20548;-80
2022/12/09 09:43:19;;;;;;;115.07;44.25;;;;;;;-3.20;100.00;100075.53;5108722;28;20418;-80
2022/12/09 09:45:50;;;;;;;69.53;15.25;;;;;;;-3.21;100.00;100079.00;5088468;28;20067;-80
2022/12/09 09:48:37;;;;;;;61.47;18.48;;;;;;;-3.21;100.00;100084.19;5095760;28;20043;-80
2022/12/09 09:51:30;;;;;;;60.47;16.70;;;;;;;-3.19;100.00;100078.06;5105202;28;20070;-80
2022/12/09 09:53:56;;;;;;;35.78;20.45;;;;;;;-3.14;100.00;100083.84;5096376;28;20062;-80
2022/12/09 09:56:33;;;;;;;31.98;10.75;;;;;;;-3.07;100.00;100081.03;5090314;28;20471;-80
2022/12/09 09:59:09;;;;;;;33.42;11.35;;;;;;;-3.07;100.00;100081.84;5097150;28;20056;-80
2022/12/09 10:02:10;;;;;;;62.97;8.38;;;;;;;-3.01;100.00;100083.34;5079961;28;20034;-80
2022/12/09 10:05:15;;;;;;;46.65;9.48;;;;;;;-2.96;100.00;100076.22;5078620;28;20130;-80
2022/12/09 10:08:21;;;;;;;52.55;8.85;;;;;;;-2.95;100.00;100077.06;5086828;28;20035;-80
2022/12/09 10:11:05;;;;;;;29.80;7.13;;;;;;;-2.98;100.00;100090.97;5095810;28;20040;-80
2022/12/09 10:13:43;;;;;;;19.80;7.03;;;;;;;-3.01;100.00;100078.19;5075340;28;20451;-80
2022/12/09 10:16:19;;;;;;;37.05;7.15;;;;;;;-3.02;100.00;100079.06;5075586;28;20103;-80
2022/12/09 10:19:02;;;;;;;25.58;7.90;;;;;;;-3.00;100.00;100078.13;5054508;28;20731;-82
2022/12/09 10:21:30;;;;;;;29.90;8.55;;;;;;;-2.93;100.00;100083.03;5094132;28;20483;-82
2022/12/09 10:24:13;;;;;;;31.13;9.00;;;;;;;-2.85;100.00;100080.09;5104318;28;20142;-82
2022/12/09 10:26:39;;;;;;;26.95;9.43;;;;;;;-2.82;100.00;100080.78;5095238;28;20039;-82
2022/12/09 10:29:22;;;;;;;24.60;8.65;;;;;;;-2.71;100.00;100082.06;5027267;28;20515;-82
2022/12/09 10:31:48;;;;;;;13.10;7.25;;;;;;;-2.68;100.00;100077.63;5100822;28;20039;-82
2022/12/09 10:34:14;;;;;;;44.38;7.68;;;;;;;-2.62;100.00;100079.94;5096820;28;20387;-82
2022/12/09 10:36:43;;;;;;;35.80;7.20;;;;;;;-2.54;100.00;100078.72;5093518;28;20047;-82
2022/12/09 10:39:17;;;;;;;20.02;7.53;;;;;;;-2.47;100.00;100076.72;5103403;28;20027;-83
2022/12/09 10:44:35;;;;;;;33.85;6.15;;;;;;;-2.34;100.00;100069.22;5090529;28;20708;-82
2022/12/09 10:47:03;;;;;;;33.63;8.65;;;;;;;-2.26;100.00;100069.69;5095965;28;20036;-82
2022/12/09 10:49:30;;;;;;;71.82;7.60;;;;;;;-2.18;100.00;100079.72;5082369;28;20035;-82
2022/12/09 10:51:57;;;;;;;33.40;7.05;;;;;;;-2.11;100.00;100081.09;5078490;28;20559;-83
2022/12/09 10:54:34;;;;;;;21.80;7.00;;;;;;;-2.00;100.00;100080.59;5093908;28;20034;-82
2022/12/09 10:57:12;;;;;;;16.20;6.75;;;;;;;-1.93;100.00;100068.22;5110521;28;20046;-82
2022/12/09 10:59:40;;;;;;;40.60;7.47;;;;;;;-1.89;100.00;100070.56;5081992;28;20060;-82
2022/12/09 11:02:06;;;;;;;27.63;6.97;;;;;;;-1.82;100.00;100072.88;5097733;28;20023;-82
2022/12/09 11:04:32;;;;;;;69.47;5.97;;;;;;;-1.85;100.00;100067.84;5077678;28;20032;-82
2022/12/09 11:07:02;;;;;;;24.80;7.43;;;;;;;-1.76;100.00;100075.16;5096035;28;20040;-83
2022/12/09 11:09:49;;;;;;;13.43;6.80;;;;;;;-1.68;100.00;100070.47;5056591;28;20035;-83
2022/12/09 11:12:37;;;;;;;15.88;5.90;;;;;;;-1.66;100.00;100068.63;5097328;28;20035;-83
2022/12/09 11:15:03;;;;;;;14.40;5.45;;;;;;;-1.60;100.00;100059.72;5091653;28;20031;-82
2022/12/09 11:17:32;;;;;;;36.80;7.03;;;;;;;-1.53;100.00;100065.44;5108619;28;20216;-80
2022/12/09 11:20:04;;;;;;;24.10;7.47;;;;;;;-1.49;100.00;100059.19;5111484;28;20122;-80
2022/12/09 11:22:40;;;;;;;20.10;5.10;;;;;;;-1.45;100.00;100055.50;5110993;28;20023;-80
2022/12/09 11:25:27;;;;;;;53.20;5.65;;;;;;;-1.45;100.00;100054.69;5095709;28;20046;-79